createdAt,value
2019-03-24T00:00:39.436Z,6.70
2019-03-24T00:03:10.972Z,6.70
2019-03-24T00:05:42.453Z,6.60
2019-03-24T00:08:13.881Z,6.50
2019-03-24T00:10:45.365Z,6.50
2019-03-24T00:13:16.822Z,6.40
2019-03-24T00:15:49.041Z,6.30
2019-03-24T00:18:20.497Z,6.30
2019-03-24T00:20:52.787Z,6.20
2019-03-24T00:23:24.291Z,6.20
2019-03-24T00:25:55.762Z,6.20
2019-03-24T00:28:27.238Z,6.10
2019-03-24T00:30:58.746Z,6.10
2019-03-24T00:33:30.300Z,6.10
2019-03-24T00:36:01.747Z,6.00
2019-03-24T00:38:33.217Z,6.00
2019-03-24T00:41:05.165Z,6.00
2019-03-24T00:43:36.644Z,5.90
2019-03-24T00:46:08.075Z,5.90
2019-03-24T00:48:40.836Z,5.90
2019-03-24T00:51:12.346Z,5.80
2019-03-24T00:53:43.855Z,5.80
2019-03-24T00:56:15.370Z,5.80
2019-03-24T00:58:46.933Z,5.80
2019-03-24T01:01:19.253Z,5.80
2019-03-24T01:03:50.981Z,5.80
2019-03-24T01:06:22.495Z,5.70
2019-03-24T01:08:54.353Z,5.70
2019-03-24T01:11:25.852Z,5.60
2019-03-24T01:13:57.305Z,5.60
2019-03-24T01:16:28.811Z,5.50
2019-03-24T01:19:00.276Z,5.60
2019-03-24T01:21:31.726Z,5.60
2019-03-24T01:24:03.195Z,5.50
2019-03-24T01:26:34.693Z,5.50
2019-03-24T01:29:06.784Z,5.50
2019-03-24T01:31:38.375Z,5.40
2019-03-24T01:34:12.317Z,5.40
2019-03-24T01:36:44.554Z,5.40
2019-03-24T01:39:16.021Z,5.40
2019-03-24T01:41:47.493Z,5.40
2019-03-24T01:44:18.970Z,5.40
2019-03-24T01:46:50.415Z,5.40
2019-03-24T01:49:21.887Z,5.40
2019-03-24T01:51:53.456Z,5.40
2019-03-24T01:54:24.978Z,5.40
2019-03-24T01:56:56.708Z,5.50
2019-03-24T01:59:28.147Z,5.50
2019-03-24T02:01:59.691Z,5.50
2019-03-24T02:04:31.221Z,5.50
2019-03-24T02:07:02.645Z,5.50
2019-03-24T02:09:34.111Z,5.50
2019-03-24T02:12:05.668Z,5.60
2019-03-24T02:14:37.181Z,5.50
2019-03-24T02:17:08.908Z,5.50
2019-03-24T02:19:40.386Z,5.50
2019-03-24T02:22:11.910Z,5.50
2019-03-24T02:24:44.120Z,5.60
2019-03-24T02:27:15.688Z,5.50
2019-03-24T02:29:47.163Z,5.40
2019-03-24T02:32:18.643Z,5.40
2019-03-24T02:34:50.055Z,5.30
2019-03-24T02:37:21.534Z,5.30
2019-03-24T02:39:53.005Z,5.30
2019-03-24T02:42:24.455Z,5.20
2019-03-24T02:44:56.221Z,5.20
2019-03-24T02:47:27.712Z,5.10
2019-03-24T02:49:59.449Z,5.10
2019-03-24T02:52:30.919Z,5.00
2019-03-24T02:55:02.658Z,4.90
2019-03-24T02:57:34.120Z,4.80
2019-03-24T03:00:06.681Z,4.80
2019-03-24T03:02:38.568Z,4.70
2019-03-24T03:05:11.202Z,4.70
2019-03-24T03:07:42.841Z,4.70
2019-03-24T03:10:15.076Z,4.60
2019-03-24T03:12:47.731Z,4.60
2019-03-24T03:15:19.629Z,4.50
2019-03-24T03:17:51.096Z,4.50
2019-03-24T03:20:22.551Z,4.40
2019-03-24T03:22:54.010Z,4.40
2019-03-24T03:25:25.585Z,4.30
2019-03-24T03:27:57.172Z,4.20
2019-03-24T03:30:28.605Z,4.20
2019-03-24T03:33:00.374Z,4.20
2019-03-24T03:35:31.868Z,4.10
2019-03-24T03:38:04.389Z,4.10
2019-03-24T03:40:35.869Z,4.00
2019-03-24T03:43:07.303Z,4.00
2019-03-24T03:45:39.508Z,4.00
2019-03-24T03:48:11.190Z,4.00
2019-03-24T03:50:42.694Z,4.00
2019-03-24T03:53:14.201Z,3.90
2019-03-24T03:55:45.729Z,3.80
2019-03-24T03:58:17.268Z,3.70
2019-03-24T13:38:02.058Z,3.70
2019-03-24T13:40:33.736Z,17.00
2019-03-24T13:43:05.689Z,16.40
2019-03-24T13:45:37.328Z,16.00
2019-03-24T13:48:09.373Z,16.00
2019-03-24T13:50:40.921Z,15.70
2019-03-24T13:53:14.738Z,15.70
2019-03-24T13:55:46.781Z,15.70
2019-03-24T16:41:52.882Z,15.30
2019-03-24T16:46:56.130Z,10.90
2019-03-24T17:24:40.013Z,10.60
2019-03-24T20:03:21.488Z,9.70
2019-03-24T20:05:55.567Z,5.60
2019-03-24T20:08:27.094Z,5.50
2019-03-24T20:10:58.622Z,5.40
2019-03-24T20:13:30.099Z,5.40
2019-03-24T20:16:01.881Z,5.30
2019-03-24T20:18:33.425Z,5.30
2019-03-24T20:21:05.965Z,5.30
2019-03-24T20:23:37.707Z,5.20
2019-03-24T20:26:10.636Z,5.20
2019-03-24T20:28:42.255Z,5.10
2019-03-24T20:31:13.932Z,5.10
2019-03-24T20:33:45.562Z,5.00
2019-03-24T20:36:17.052Z,4.90
2019-03-24T20:38:48.560Z,4.80
2019-03-24T20:41:20.141Z,4.80
2019-03-24T20:43:51.926Z,4.70
2019-03-24T20:46:23.406Z,4.70
2019-03-24T20:48:55.080Z,4.70
2019-03-24T20:51:26.662Z,4.60
2019-03-24T20:53:58.176Z,4.60
2019-03-24T21:06:32.157Z,4.50
2019-03-24T21:09:04.015Z,4.30
2019-03-24T21:11:36.193Z,4.40
2019-03-24T21:14:08.558Z,4.50
2019-03-24T21:16:40.202Z,4.40
2019-03-24T21:19:11.794Z,4.30
2019-03-24T21:21:44.420Z,4.20
2019-03-24T21:24:15.881Z,4.10
2019-03-24T21:26:47.558Z,4.10
2019-03-24T21:29:20.024Z,4.00
2019-03-24T21:31:51.529Z,3.90
2019-03-24T21:34:31.129Z,3.90
2019-03-24T21:37:02.632Z,3.80
2019-03-24T21:39:34.200Z,3.80
2019-03-24T21:42:05.888Z,3.70
2019-03-24T21:44:37.407Z,3.60
2019-03-24T21:47:09.703Z,3.60
2019-03-24T21:49:41.308Z,3.50
2019-03-24T21:52:12.852Z,3.50
2019-03-24T21:54:46.171Z,3.40
2019-03-24T21:57:17.944Z,3.40
2019-03-24T21:59:49.481Z,3.40
2019-03-24T22:02:21.043Z,3.30
2019-03-24T22:04:52.657Z,3.30
2019-03-24T22:07:24.227Z,3.20
2019-03-24T22:09:56.443Z,3.20
2019-03-24T22:12:27.987Z,3.20
2019-03-24T22:15:01.499Z,3.20
2019-03-24T22:17:38.266Z,3.20
2019-03-24T22:20:14.044Z,3.20
2019-03-24T22:22:45.479Z,3.10
2019-03-24T22:25:16.945Z,3.10
2019-03-24T22:27:56.117Z,3.10
2019-03-24T22:30:29.291Z,3.10
2019-03-24T22:33:01.483Z,3.00
2019-03-24T22:35:33.070Z,2.90
2019-03-24T22:38:04.966Z,2.90
2019-03-24T22:40:37.237Z,3.00
2019-03-24T22:43:08.707Z,2.90
2019-03-24T22:45:41.368Z,2.90
2019-03-24T22:48:12.896Z,2.80
2019-03-24T22:50:44.338Z,2.90
2019-03-24T22:53:15.971Z,2.90
2019-03-24T22:55:47.460Z,2.90
2019-03-24T22:58:18.986Z,2.90
2019-03-24T23:00:52.941Z,2.90
2019-03-24T23:03:25.575Z,2.90
2019-03-24T23:05:57.255Z,3.00
2019-03-24T23:08:28.786Z,3.00
2019-03-24T23:11:00.649Z,2.90
2019-03-24T23:13:32.135Z,2.80
2019-03-24T23:16:03.905Z,2.80
2019-03-24T23:18:35.356Z,2.80
2019-03-24T23:21:06.904Z,2.80
2019-03-24T23:23:38.444Z,2.90
2019-03-24T23:26:10.753Z,2.90
2019-03-24T23:28:42.480Z,2.90
2019-03-24T23:31:13.982Z,3.00
2019-03-24T23:33:45.987Z,2.90
2019-03-24T23:36:17.454Z,3.00
2019-03-24T23:38:48.903Z,2.90
2019-03-24T23:41:20.383Z,3.10
2019-03-24T23:43:51.842Z,3.10
2019-03-24T23:46:23.300Z,3.20
2019-03-24T23:48:54.766Z,3.20
2019-03-24T23:51:26.209Z,3.30
2019-03-24T23:53:57.693Z,3.40
2019-03-24T23:56:29.287Z,3.30
2019-03-24T23:59:01.228Z,3.30
